createdAt,value
2023-02-27T00:00:24.736Z,100254.50
2023-02-27T00:03:48.839Z,100265.50
2023-02-27T00:07:11.703Z,100273.69
2023-02-27T00:10:34.597Z,100278.69
2023-02-27T00:13:57.352Z,100278.41
2023-02-27T00:17:20.274Z,100279.97
2023-02-27T00:20:44.254Z,100277.16
2023-02-27T00:24:08.081Z,100271.84
2023-02-27T00:27:30.332Z,100276.44
2023-02-27T00:30:53.472Z,100273.28
2023-02-27T00:34:16.106Z,100291.72
2023-02-27T00:37:40.045Z,100292.78
2023-02-27T00:41:02.903Z,100299.03
2023-02-27T00:44:26.022Z,100304.97
2023-02-27T00:47:48.621Z,100297.56
2023-02-27T00:51:11.692Z,100297.94
2023-02-27T00:54:35.645Z,100303.31
2023-02-27T00:57:58.183Z,100303.41
2023-02-27T01:01:20.933Z,100306.94
2023-02-27T01:04:44.055Z,100308.44
2023-02-27T01:08:06.434Z,100306.97
2023-02-27T01:11:30.659Z,100311.34
2023-02-27T01:14:55.213Z,100307.78
2023-02-27T01:18:17.656Z,100319.63
2023-02-27T01:21:42.155Z,100321.03
2023-02-27T01:25:05.385Z,100324.44
2023-02-27T01:28:29.399Z,100325.16
2023-02-27T01:31:52.359Z,100319.84
2023-02-27T01:35:14.699Z,100329.03
2023-02-27T01:38:40.712Z,100328.87
2023-02-27T01:42:03.001Z,100329.34
2023-02-27T01:45:32.505Z,100338.22
2023-02-27T01:48:59.657Z,100336.34
2023-02-27T01:52:22.491Z,100342.13
2023-02-27T01:55:46.651Z,100339.00
2023-02-27T01:59:09.527Z,100334.75
2023-02-27T02:02:36.166Z,100330.31
2023-02-27T02:05:59.232Z,100341.53
2023-02-27T02:09:21.884Z,100353.06
2023-02-27T02:12:44.414Z,100356.44
2023-02-27T02:16:15.792Z,100359.25
2023-02-27T02:20:12.270Z,100362.25
2023-02-27T02:24:20.933Z,100360.13
2023-02-27T02:27:50.652Z,100371.25
2023-02-27T02:31:37.893Z,100376.78
2023-02-27T02:35:54.620Z,100393.72
2023-02-27T02:39:47.621Z,100396.94
2023-02-27T02:43:12.434Z,100401.47
2023-02-27T02:46:39.109Z,100403.37
2023-02-27T02:50:04.393Z,100406.03
2023-02-27T02:53:37.195Z,100412.00
2023-02-27T02:57:04.588Z,100402.59
2023-02-27T03:00:29.342Z,100404.59
2023-02-27T03:03:55.691Z,100404.03
2023-02-27T03:07:21.118Z,100408.66
2023-02-27T03:10:44.753Z,100402.03
2023-02-27T03:14:10.622Z,100409.34
2023-02-27T03:17:37.308Z,100417.06
2023-02-27T03:21:01.093Z,100418.59
2023-02-27T03:24:25.999Z,100423.41
2023-02-27T03:27:50.679Z,100428.28
2023-02-27T03:31:17.298Z,100428.34
2023-02-27T03:34:41.317Z,100428.84
2023-02-27T03:38:07.520Z,100433.37
2023-02-27T03:41:31.929Z,100429.16
2023-02-27T03:44:59.187Z,100435.12
2023-02-27T03:48:23.901Z,100443.91
2023-02-27T03:51:46.324Z,100437.78
2023-02-27T03:55:12.622Z,100446.63
2023-02-27T03:58:38.331Z,100442.69
2023-02-27T04:02:01.928Z,100444.78
2023-02-27T04:05:26.887Z,100450.47
2023-02-27T04:08:52.255Z,100449.06
2023-02-27T04:12:23.931Z,100450.06
2023-02-27T04:16:07.722Z,100448.94
2023-02-27T04:19:42.803Z,100444.69
2023-02-27T04:23:07.710Z,100459.06
2023-02-27T04:26:32.407Z,100449.00
2023-02-27T04:29:56.263Z,100456.12
2023-02-27T04:33:24.728Z,100446.50
2023-02-27T04:36:48.902Z,100451.78
2023-02-27T04:40:14.023Z,100447.50
2023-02-27T04:43:36.717Z,100449.41
2023-02-27T04:46:59.305Z,100452.34
2023-02-27T04:50:24.234Z,100463.94
2023-02-27T04:53:50.130Z,100472.91
2023-02-27T04:57:16.282Z,100480.06
2023-02-27T05:00:38.964Z,100486.06
2023-02-27T05:04:01.673Z,100494.50
2023-02-27T05:07:28.242Z,100507.72
2023-02-27T05:10:52.292Z,100500.47
2023-02-27T05:14:18.261Z,100502.31
2023-02-27T05:17:42.555Z,100511.84
2023-02-27T05:21:11.122Z,100512.47
2023-02-27T05:24:36.429Z,100518.25
2023-02-27T05:28:01.063Z,100529.34
2023-02-27T05:31:28.390Z,100525.44
2023-02-27T05:34:53.468Z,100540.81
2023-02-27T05:38:17.024Z,100541.06
2023-02-27T05:41:42.524Z,100546.81
2023-02-27T05:45:07.082Z,100546.38
2023-02-27T05:48:33.557Z,100545.50
2023-02-27T05:51:57.288Z,100546.25
2023-02-27T05:55:22.927Z,100555.47
2023-02-27T05:58:47.111Z,100550.22
2023-02-27T06:02:09.957Z,100555.03
2023-02-27T06:05:34.604Z,100568.00
2023-02-27T06:08:58.286Z,100573.38
2023-02-27T06:12:24.087Z,100582.87
2023-02-27T06:15:46.833Z,100595.66
2023-02-27T06:19:09.808Z,100599.84
2023-02-27T06:22:33.515Z,100605.50
2023-02-27T06:25:55.950Z,100619.56
2023-02-27T06:29:18.639Z,100617.91
2023-02-27T06:32:41.582Z,100632.63
2023-02-27T06:36:03.894Z,100647.69
2023-02-27T06:39:28.711Z,100653.81
2023-02-27T06:42:51.036Z,100667.00
2023-02-27T06:46:13.368Z,100673.56
2023-02-27T06:49:35.740Z,100672.78
2023-02-27T06:52:58.262Z,100669.50
2023-02-27T06:56:22.723Z,100672.31
2023-02-27T06:59:45.575Z,100676.09
2023-02-27T07:03:08.041Z,100680.22
2023-02-27T07:07:33.328Z,100688.31
2023-02-27T07:10:14.561Z,100687.22
2023-02-27T07:13:38.656Z,100687.28
2023-02-27T07:17:05.501Z,100681.69
2023-02-27T07:20:28.731Z,100687.63
2023-02-27T07:23:51.413Z,100696.56
2023-02-27T07:27:14.524Z,100694.53
2023-02-27T07:30:39.294Z,100692.62
2023-02-27T07:34:02.257Z,100700.25
2023-02-27T07:37:27.610Z,100696.72
2023-02-27T07:40:50.617Z,100705.06
2023-02-27T07:44:13.703Z,100699.41
2023-02-27T07:47:37.766Z,100702.88
2023-02-27T07:51:00.427Z,100709.91
2023-02-27T07:54:23.009Z,100713.94
2023-02-27T07:57:46.078Z,100712.19
2023-02-27T08:01:09.114Z,100719.28
2023-02-27T08:04:33.248Z,100720.16
2023-02-27T08:07:55.401Z,100726.34
2023-02-27T08:11:18.612Z,100728.47
2023-02-27T08:14:40.836Z,100738.97
2023-02-27T08:18:03.626Z,100738.75
2023-02-27T08:21:28.983Z,100745.13
2023-02-27T08:24:52.087Z,100746.81
2023-02-27T08:28:14.743Z,100745.50
2023-02-27T08:31:38.087Z,100762.09
2023-02-27T08:35:00.734Z,100764.72
2023-02-27T08:38:26.368Z,100774.19
2023-02-27T08:41:49.021Z,100775.38
2023-02-27T08:45:12.443Z,100788.50
2023-02-27T08:48:34.588Z,100786.37
2023-02-27T08:51:57.086Z,100787.97
2023-02-27T08:55:21.577Z,100789.44
2023-02-27T08:58:44.313Z,100793.50
2023-02-27T09:02:06.782Z,100793.03
2023-02-27T09:05:29.183Z,100799.06
2023-02-27T09:08:51.794Z,100803.97
2023-02-27T09:12:15.777Z,100811.34
2023-02-27T09:15:38.518Z,100814.13
2023-02-27T09:19:01.292Z,100806.37
2023-02-27T09:22:23.838Z,100809.44
2023-02-27T09:25:48.445Z,100801.53
2023-02-27T09:29:12.191Z,100812.28
2023-02-27T09:32:35.130Z,100820.81
2023-02-27T09:35:57.734Z,100819.44
2023-02-27T09:39:21.778Z,100813.97
2023-02-27T09:42:45.631Z,100817.41
2023-02-27T09:46:11.070Z,100815.66
2023-02-27T09:49:35.342Z,100817.09
2023-02-27T09:52:58.331Z,100822.50
2023-02-27T09:56:22.941Z,100822.41
2023-02-27T09:59:47.030Z,100823.50
2023-02-27T10:03:17.966Z,100833.75
2023-02-27T10:06:43.945Z,100839.38
2023-02-27T10:10:10.353Z,100831.38
2023-02-27T10:13:45.933Z,100828.91
2023-02-27T10:17:11.060Z,100827.41
2023-02-27T10:20:35.709Z,100824.25
2023-02-27T10:24:00.668Z,100823.84
2023-02-27T10:27:23.972Z,100823.75
2023-02-27T10:30:48.837Z,100820.41
2023-02-27T10:34:12.249Z,100818.56
2023-02-27T10:37:35.920Z,100821.94
2023-02-27T10:40:59.326Z,100819.50
2023-02-27T10:44:21.851Z,100819.69
2023-02-27T10:47:44.899Z,100812.50
2023-02-27T10:51:25.389Z,100817.19
2023-02-27T10:54:49.651Z,100821.94
2023-02-27T10:58:19.667Z,100813.00
2023-02-27T11:01:43.803Z,100821.88
2023-02-27T11:05:07.308Z,100806.91
2023-02-27T11:08:30.652Z,100818.53
2023-02-27T11:11:54.659Z,100814.88
2023-02-27T11:15:23.926Z,100808.72
2023-02-27T11:18:46.944Z,100811.44
2023-02-27T11:22:18.054Z,100812.25
2023-02-27T11:25:40.260Z,100819.28
2023-02-27T11:29:09.738Z,100822.31
2023-02-27T11:32:37.372Z,100825.44
2023-02-27T11:36:00.257Z,100823.13
2023-02-27T11:39:25.643Z,100822.50
2023-02-27T11:42:49.834Z,100828.12
2023-02-27T11:46:43.262Z,100820.88
2023-02-27T11:50:34.344Z,100823.47
2023-02-27T11:54:15.871Z,100820.37
2023-02-27T11:57:40.809Z,100825.16
2023-02-27T12:01:04.208Z,100822.94
2023-02-27T12:04:30.828Z,100813.69
2023-02-27T12:07:58.363Z,100817.88
2023-02-27T12:11:24.075Z,100816.72
2023-02-27T12:14:50.533Z,100813.22
2023-02-27T12:18:16.859Z,100826.28
2023-02-27T12:21:42.580Z,100827.16
2023-02-27T12:25:07.568Z,100829.56
2023-02-27T12:28:36.621Z,100830.88
2023-02-27T12:32:01.745Z,100839.66
2023-02-27T12:35:25.583Z,100835.66
2023-02-27T12:38:49.863Z,100831.66
2023-02-27T12:42:25.774Z,100840.47
2023-02-27T12:45:56.724Z,100846.69
2023-02-27T12:49:26.614Z,100843.81
2023-02-27T12:52:58.237Z,100839.41
2023-02-27T12:56:22.711Z,100845.44
2023-02-27T12:59:53.686Z,100835.97
2023-02-27T13:03:17.513Z,100833.91
2023-02-27T13:06:42.483Z,100838.91
2023-02-27T13:10:05.757Z,100838.31
2023-02-27T13:13:34.223Z,100846.22
2023-02-27T13:16:58.008Z,100845.44
2023-02-27T13:20:31.285Z,100844.53
2023-02-27T13:24:04.170Z,100852.69
2023-02-27T13:27:28.677Z,100852.44
2023-02-27T13:31:00.862Z,100852.53
2023-02-27T13:34:27.465Z,100852.81
2023-02-27T13:37:54.301Z,100860.97
2023-02-27T13:41:39.569Z,100854.00
2023-02-27T13:45:02.204Z,100859.63
2023-02-27T13:48:49.444Z,100862.66
2023-02-27T13:52:12.029Z,100862.53
2023-02-27T13:55:37.063Z,100864.13
2023-02-27T13:59:03.180Z,100860.75
2023-02-27T14:02:52.960Z,100864.63
2023-02-27T14:06:22.830Z,100871.75
2023-02-27T14:09:45.904Z,100853.91
2023-02-27T14:13:42.425Z,100853.44
2023-02-27T14:17:04.797Z,100860.31
2023-02-27T14:20:49.511Z,100856.53
2023-02-27T14:24:14.546Z,100854.19
2023-02-27T14:27:55.267Z,100861.31
2023-02-27T14:31:23.175Z,100859.56
2023-02-27T14:34:45.778Z,100867.31
2023-02-27T14:38:10.713Z,100867.16
2023-02-27T14:41:39.543Z,100872.34
2023-02-27T14:45:01.914Z,100873.09
2023-02-27T14:48:28.158Z,100874.53
2023-02-27T14:51:52.719Z,100870.59
2023-02-27T14:55:18.289Z,100879.38
2023-02-27T14:58:42.395Z,100871.50
2023-02-27T15:02:06.596Z,100876.81
2023-02-27T15:05:34.752Z,100870.22
2023-02-27T15:09:00.574Z,100881.34
2023-02-27T15:12:23.684Z,100883.22
2023-02-27T15:15:48.857Z,100896.94
2023-02-27T15:19:17.411Z,100893.56
2023-02-27T15:22:40.334Z,100912.06
2023-02-27T15:26:02.997Z,100906.78
2023-02-27T15:29:27.092Z,100919.81
2023-02-27T15:32:50.659Z,100919.84
2023-02-27T15:36:20.067Z,100929.78
2023-02-27T15:39:42.864Z,100932.47
2023-02-27T15:43:06.103Z,100940.69
2023-02-27T15:46:28.838Z,100935.06
2023-02-27T15:49:59.692Z,100952.88
2023-02-27T15:53:23.174Z,100957.97
2023-02-27T15:56:46.126Z,100961.41
2023-02-27T16:00:09.645Z,100963.31
2023-02-27T16:03:37.016Z,100957.28
2023-02-27T16:07:03.503Z,100971.94
2023-02-27T16:10:27.930Z,100981.50
2023-02-27T16:13:51.099Z,100984.69
2023-02-27T16:17:28.629Z,100994.25
2023-02-27T16:20:55.315Z,100986.72
2023-02-27T16:24:22.696Z,100994.66
2023-02-27T16:27:47.344Z,101003.44
2023-02-27T16:31:17.673Z,101008.25
2023-02-27T16:34:45.477Z,101012.69
2023-02-27T16:38:10.039Z,101018.25
2023-02-27T16:41:35.209Z,101027.84
2023-02-27T16:44:57.750Z,101042.50
2023-02-27T16:48:21.430Z,101038.06
2023-02-27T16:51:43.932Z,101043.19
2023-02-27T16:55:08.282Z,101047.41
2023-02-27T16:58:33.830Z,101051.66
2023-02-27T17:02:00.870Z,101062.88
2023-02-27T17:05:24.347Z,101067.16
2023-02-27T17:08:47.990Z,101065.59
2023-02-27T17:12:11.297Z,101061.28
2023-02-27T17:15:35.874Z,101056.56
2023-02-27T17:18:58.496Z,101078.09
2023-02-27T17:22:21.408Z,101085.13
2023-02-27T17:25:44.400Z,101091.72
2023-02-27T17:29:10.111Z,101092.41
2023-02-27T17:32:35.057Z,101098.47
2023-02-27T17:36:03.279Z,101097.22
2023-02-27T17:39:26.748Z,101109.66
2023-02-27T17:42:52.265Z,101115.28
2023-02-27T17:46:15.718Z,101120.22
2023-02-27T17:49:43.246Z,101117.44
2023-02-27T17:53:06.437Z,101117.69
2023-02-27T17:56:31.240Z,101134.06
2023-02-27T17:59:54.832Z,101134.97
2023-02-27T18:03:20.013Z,101144.88
2023-02-27T18:06:44.861Z,101153.88
2023-02-27T18:10:10.733Z,101158.28
2023-02-27T18:13:35.019Z,101163.09
2023-02-27T18:17:00.828Z,101162.16
2023-02-27T18:20:27.312Z,101156.97
2023-02-27T18:23:53.161Z,101166.72
2023-02-27T18:27:18.274Z,101158.06
2023-02-27T18:30:42.812Z,101156.44
2023-02-27T18:34:08.239Z,101165.91
2023-02-27T18:37:31.493Z,101162.63
2023-02-27T18:40:58.021Z,101170.44
2023-02-27T18:44:21.989Z,101174.78
2023-02-27T18:47:46.740Z,101181.94
2023-02-27T18:51:12.758Z,101180.06
2023-02-27T18:54:43.025Z,101181.22
2023-02-27T18:58:09.885Z,101197.19
2023-02-27T19:01:35.994Z,101197.41
2023-02-27T19:05:00.524Z,101199.25
2023-02-27T19:08:29.683Z,101201.78
2023-02-27T19:11:56.318Z,101202.69
2023-02-27T19:15:23.108Z,101209.78
2023-02-27T19:18:48.396Z,101215.28
2023-02-27T19:22:15.031Z,101217.00
2023-02-27T19:25:38.650Z,101222.25
2023-02-27T19:29:02.255Z,101225.91
2023-02-27T19:32:26.691Z,101239.12
2023-02-27T19:35:50.903Z,101241.66
2023-02-27T19:39:15.288Z,101226.75
2023-02-27T19:42:45.289Z,101216.09
2023-02-27T19:46:09.225Z,101217.88
2023-02-27T19:49:36.369Z,101224.81
2023-02-27T19:53:00.976Z,101208.91
2023-02-27T19:56:27.121Z,101205.56
2023-02-27T19:59:51.664Z,101242.59
2023-02-27T20:03:16.508Z,101253.22
2023-02-27T20:06:43.741Z,101257.66
2023-02-27T20:10:08.556Z,101248.91
2023-02-27T20:13:34.033Z,101279.91
2023-02-27T20:16:59.099Z,101278.25
2023-02-27T20:20:24.884Z,101288.69
2023-02-27T20:23:51.236Z,101286.91
2023-02-27T20:27:16.176Z,101280.84
2023-02-27T20:30:40.804Z,101268.53
2023-02-27T20:34:19.830Z,101265.22
2023-02-27T20:37:43.700Z,101263.34
2023-02-27T20:41:10.460Z,101277.31
2023-02-27T20:44:35.952Z,101271.16
2023-02-27T20:48:04.840Z,101285.31
2023-02-27T20:51:28.917Z,101303.00
2023-02-27T20:54:53.490Z,101299.56
2023-02-27T20:58:18.472Z,101309.31
2023-02-27T21:01:51.597Z,101287.28
2023-02-27T21:05:18.507Z,101297.94
2023-02-27T21:08:43.645Z,101302.28
2023-02-27T21:12:07.123Z,101298.81
2023-02-27T21:15:32.972Z,101294.44
2023-02-27T21:18:56.772Z,101298.00
2023-02-27T21:22:19.886Z,101298.84
2023-02-27T21:25:43.622Z,101304.13
2023-02-27T21:29:07.571Z,101313.06
2023-02-27T21:32:31.824Z,101306.84
2023-02-27T21:35:55.766Z,101312.13
2023-02-27T21:39:19.931Z,101315.69
2023-02-27T21:42:43.917Z,101311.22
2023-02-27T21:46:06.967Z,101303.31
2023-02-27T21:49:31.495Z,101293.72
2023-02-27T21:52:54.063Z,101296.34
2023-02-27T21:56:17.260Z,101288.41
2023-02-27T21:59:41.678Z,101285.75
2023-02-27T22:03:04.487Z,101291.75
2023-02-27T22:06:29.385Z,101285.63
2023-02-27T22:09:51.666Z,101289.38
2023-02-27T22:13:14.812Z,101286.47
2023-02-27T22:16:37.520Z,101276.63
2023-02-27T22:20:00.417Z,101287.31
2023-02-27T22:23:24.187Z,101290.72
2023-02-27T22:26:47.969Z,101294.22
2023-02-27T22:30:12.870Z,101296.72
2023-02-27T22:33:35.556Z,101304.91
2023-02-27T22:36:58.084Z,101309.31
2023-02-27T22:40:25.991Z,101303.06
2023-02-27T22:43:48.988Z,101306.88
2023-02-27T22:47:11.863Z,101314.97
2023-02-27T22:50:34.319Z,101320.75
2023-02-27T22:53:57.391Z,101317.72
2023-02-27T22:57:21.275Z,101323.25
2023-02-27T23:00:44.046Z,101322.56
2023-02-27T23:04:08.084Z,101322.16
2023-02-27T23:07:31.015Z,101328.44
2023-02-27T23:10:53.461Z,101334.97
2023-02-27T23:14:17.947Z,101342.00
2023-02-27T23:17:52.064Z,101332.16
2023-02-27T23:21:20.296Z,101325.91
2023-02-27T23:24:42.717Z,101326.09
2023-02-27T23:28:05.814Z,101336.75
2023-02-27T23:31:31.064Z,101339.25
2023-02-27T23:34:55.303Z,101346.25
2023-02-27T23:38:17.959Z,101348.91
2023-02-27T23:41:40.711Z,101350.50
2023-02-27T23:45:03.255Z,101355.63
2023-02-27T23:48:27.121Z,101362.16
2023-02-27T23:51:49.704Z,101363.50
2023-02-27T23:55:12.396Z,101363.31
2023-02-27T23:58:34.893Z,101379.47
